sensor_id;sensor_type;location;lat;lon;timestamp;pressure;altitude;pressure_sealevel;temperature;humidity
18900;BME280;9582;52.018;6.306;2022-09-24T00:01:07;101204.22;;;14.54;100.00
18900;BME280;9582;52.018;6.306;2022-09-24T00:03:34;101201.09;;;14.63;100.00
18900;BME280;9582;52.018;6.306;2022-09-24T00:06:01;101194.28;;;14.43;100.00
18900;BME280;9582;52.018;6.306;2022-09-24T00:08:28;101198.78;;;14.57;100.00
18900;BME280;9582;52.018;6.306;2022-09-24T00:10:55;101195.91;;;14.62;100.00
18900;BME280;9582;52.018;6.306;2022-09-24T00:13:22;101191.31;;;14.65;100.00
18900;BME280;9582;52.018;6.306;2022-09-24T00:15:50;101190.91;;;14.57;100.00
18900;BME280;9582;52.018;6.306;2022-09-24T00:18:17;101186.06;;;14.50;100.00
18900;BME280;9582;52.018;6.306;2022-09-24T00:20:46;101187.41;;;14.41;100.00
18900;BME280;9582;52.018;6.306;2022-09-24T00:23:13;101189.78;;;14.45;100.00
18900;BME280;9582;52.018;6.306;2022-09-24T00:25:40;101188.69;;;14.50;100.00
18900;BME280;9582;52.018;6.306;2022-09-24T00:28:26;101185.66;;;14.73;100.00
18900;BME280;9582;52.018;6.306;2022-09-24T00:30:52;101182.84;;;14.76;100.00
18900;BME280;9582;52.018;6.306;2022-09-24T00:33:20;101180.28;;;14.90;100.00
18900;BME280;9582;52.018;6.306;2022-09-24T00:35:47;101185.97;;;14.82;100.00
18900;BME280;9582;52.018;6.306;2022-09-24T00:38:13;101180.69;;;14.82;100.00
18900;BME280;9582;52.018;6.306;2022-09-24T00:40:40;101184.09;;;14.84;100.00
18900;BME280;9582;52.018;6.306;2022-09-24T00:43:23;101176.03;;;14.72;100.00
18900;BME280;9582;52.018;6.306;2022-09-24T00:45:54;101178.50;;;14.75;100.00
18900;BME280;9582;52.018;6.306;2022-09-24T00:48:22;101175.75;;;14.76;100.00
18900;BME280;9582;52.018;6.306;2022-09-24T00:50:49;101168.91;;;14.74;100.00
18900;BME280;9582;52.018;6.306;2022-09-24T00:53:18;101166.94;;;14.77;100.00
18900;BME280;9582;52.018;6.306;2022-09-24T00:55:48;101165.94;;;14.64;100.00
18900;BME280;9582;52.018;6.306;2022-09-24T00:58:19;101165.94;;;14.64;100.00
18900;BME280;9582;52.018;6.306;2022-09-24T01:00:48;101157.22;;;14.93;100.00
18900;BME280;9582;52.018;6.306;2022-09-24T01:03:19;101158.44;;;14.88;100.00
18900;BME280;9582;52.018;6.306;2022-09-24T01:05:46;101158.34;;;14.89;100.00
18900;BME280;9582;52.018;6.306;2022-09-24T01:08:14;101157.69;;;14.86;100.00
18900;BME280;9582;52.018;6.306;2022-09-24T01:10:49;101149.38;;;14.78;100.00
18900;BME280;9582;52.018;6.306;2022-09-24T01:13:34;101159.38;;;14.87;100.00
18900;BME280;9582;52.018;6.306;2022-09-24T01:16:13;101148.69;;;14.74;100.00
18900;BME280;9582;52.018;6.306;2022-09-24T01:18:50;101144.34;;;14.73;100.00
18900;BME280;9582;52.018;6.306;2022-09-24T01:21:32;101137.28;;;14.89;100.00
18900;BME280;9582;52.018;6.306;2022-09-24T01:24:17;101144.28;;;14.75;100.00
18900;BME280;9582;52.018;6.306;2022-09-24T01:27:05;101144.28;;;14.75;100.00
18900;BME280;9582;52.018;6.306;2022-09-24T01:29:44;101144.00;;;14.79;100.00
18900;BME280;9582;52.018;6.306;2022-09-24T01:32:16;101136.91;;;14.66;100.00
18900;BME280;9582;52.018;6.306;2022-09-24T01:34:48;101135.13;;;14.66;100.00
18900;BME280;9582;52.018;6.306;2022-09-24T01:37:18;101127.06;;;14.54;100.00
18900;BME280;9582;52.018;6.306;2022-09-24T01:39:47;101122.22;;;14.62;100.00
18900;BME280;9582;52.018;6.306;2022-09-24T01:42:15;101125.09;;;14.57;100.00
18900;BME280;9582;52.018;6.306;2022-09-24T01:44:44;101125.09;;;14.57;100.00
18900;BME280;9582;52.018;6.306;2022-09-24T01:47:19;101121.72;;;14.55;100.00
18900;BME280;9582;52.018;6.306;2022-09-24T01:49:50;101119.94;;;14.56;100.00
18900;BME280;9582;52.018;6.306;2022-09-24T01:52:21;101117.97;;;14.59;100.00
18900;BME280;9582;52.018;6.306;2022-09-24T01:54:50;101119.84;;;14.57;100.00
18900;BME280;9582;52.018;6.306;2022-09-24T01:57:21;101113.41;;;14.47;100.00
18900;BME280;9582;52.018;6.306;2022-09-24T01:59:54;101111.19;;;14.55;100.00
18900;BME280;9582;52.018;6.306;2022-09-24T02:02:26;101104.22;;;14.54;100.00
18900;BME280;9582;52.018;6.306;2022-09-24T02:04:58;101103.91;;;14.44;100.00
18900;BME280;9582;52.018;6.306;2022-09-24T02:07:32;101109.59;;;14.53;100.00
18900;BME280;9582;52.018;6.306;2022-09-24T02:10:00;101104.38;;;14.51;100.00
18900;BME280;9582;52.018;6.306;2022-09-24T02:12:31;101105.19;;;14.53;100.00
18900;BME280;9582;52.018;6.306;2022-09-24T02:15:02;101098.97;;;14.54;100.00
18900;BME280;9582;52.018;6.306;2022-09-24T02:17:34;101104.38;;;14.51;100.00
18900;BME280;9582;52.018;6.306;2022-09-24T02:20:05;101099.81;;;14.55;100.00
18900;BME280;9582;52.018;6.306;2022-09-24T02:22:35;101095.41;;;14.55;100.00
18900;BME280;9582;52.018;6.306;2022-09-24T02:25:05;101092.84;;;14.69;100.00
18900;BME280;9582;52.018;6.306;2022-09-24T02:27:34;101094.03;;;14.48;100.00
18900;BME280;9582;52.018;6.306;2022-09-24T02:30:04;101086.00;;;14.81;100.00
18900;BME280;9582;52.018;6.306;2022-09-24T02:32:32;101084.34;;;14.64;100.00
18900;BME280;9582;52.018;6.306;2022-09-24T02:35:03;101088.03;;;14.46;100.00
18900;BME280;9582;52.018;6.306;2022-09-24T02:37:33;101091.84;;;14.40;100.00
18900;BME280;9582;52.018;6.306;2022-09-24T02:40:00;101084.97;;;14.38;100.00
18900;BME280;9582;52.018;6.306;2022-09-24T02:42:27;101092.09;;;14.52;100.00
18900;BME280;9582;52.018;6.306;2022-09-24T02:44:55;101083.63;;;14.47;100.00
18900;BME280;9582;52.018;6.306;2022-09-24T02:47:25;101085.06;;;14.52;100.00
18900;BME280;9582;52.018;6.306;2022-09-24T02:49:51;101083.69;;;14.45;100.00
18900;BME280;9582;52.018;6.306;2022-09-24T02:52:18;101081.22;;;14.58;100.00
18900;BME280;9582;52.018;6.306;2022-09-24T02:54:45;101090.31;;;14.52;100.00
18900;BME280;9582;52.018;6.306;2022-09-24T02:57:11;101083.88;;;14.42;100.00
18900;BME280;9582;52.018;6.306;2022-09-24T02:59:37;101084.75;;;14.25;100.00
18900;BME280;9582;52.018;6.306;2022-09-24T03:02:04;101077.38;;;14.63;100.00
18900;BME280;9582;52.018;6.306;2022-09-24T03:04:32;101076.53;;;14.63;100.00
18900;BME280;9582;52.018;6.306;2022-09-24T03:06:59;101081.31;;;14.56;100.00
18900;BME280;9582;52.018;6.306;2022-09-24T03:09:25;101079.28;;;14.61;100.00
18900;BME280;9582;52.018;6.306;2022-09-24T03:11:52;101076.81;;;14.42;100.00
18900;BME280;9582;52.018;6.306;2022-09-24T03:14:18;101080.81;;;14.34;100.00
18900;BME280;9582;52.018;6.306;2022-09-24T03:16:45;101080.53;;;14.23;100.00
18900;BME280;9582;52.018;6.306;2022-09-24T03:19:11;101084.44;;;14.31;100.00
18900;BME280;9582;52.018;6.306;2022-09-24T03:21:39;101078.31;;;14.62;100.00
18900;BME280;9582;52.018;6.306;2022-09-24T03:24:05;101075.28;;;14.54;100.00
18900;BME280;9582;52.018;6.306;2022-09-24T03:26:32;101074.06;;;14.60;100.00
18900;BME280;9582;52.018;6.306;2022-09-24T03:28:58;101068.28;;;14.39;100.00
18900;BME280;9582;52.018;6.306;2022-09-24T03:31:25;101069.66;;;14.29;100.00
18900;BME280;9582;52.018;6.306;2022-09-24T03:33:51;101067.66;;;14.34;100.00
18900;BME280;9582;52.018;6.306;2022-09-24T03:36:19;101062.91;;;14.40;100.00
18900;BME280;9582;52.018;6.306;2022-09-24T03:38:49;101057.03;;;14.51;100.00
18900;BME280;9582;52.018;6.306;2022-09-24T03:41:16;101059.91;;;14.31;100.00
18900;BME280;9582;52.018;6.306;2022-09-24T03:43:43;101052.03;;;14.47;100.00
18900;BME280;9582;52.018;6.306;2022-09-24T03:46:10;101054.16;;;14.40;100.00
18900;BME280;9582;52.018;6.306;2022-09-24T03:48:38;101058.75;;;14.52;100.00
18900;BME280;9582;52.018;6.306;2022-09-24T03:51:08;101058.13;;;14.63;100.00
18900;BME280;9582;52.018;6.306;2022-09-24T03:53:35;101055.69;;;14.44;100.00
18900;BME280;9582;52.018;6.306;2022-09-24T03:56:05;101051.94;;;14.48;100.00
18900;BME280;9582;52.018;6.306;2022-09-24T03:58:33;101042.72;;;14.71;100.00
18900;BME280;9582;52.018;6.306;2022-09-24T04:01:00;101046.38;;;14.68;100.00
18900;BME280;9582;52.018;6.306;2022-09-24T04:03:27;101042.16;;;14.66;100.00
18900;BME280;9582;52.018;6.306;2022-09-24T04:05:54;101044.28;;;14.59;100.00
18900;BME280;9582;52.018;6.306;2022-09-24T04:08:21;101040.19;;;14.69;100.00
18900;BME280;9582;52.018;6.306;2022-09-24T04:10:49;101049.88;;;14.69;100.00
18900;BME280;9582;52.018;6.306;2022-09-24T04:13:17;101044.06;;;14.78;100.00
18900;BME280;9582;52.018;6.306;2022-09-24T04:15:44;101044.56;;;14.84;100.00
18900;BME280;9582;52.018;6.306;2022-09-24T04:18:10;101047.44;;;14.80;100.00
18900;BME280;9582;52.018;6.306;2022-09-24T04:20:37;101030.63;;;14.82;100.00
18900;BME280;9582;52.018;6.306;2022-09-24T04:23:04;101041.72;;;14.87;100.00
18900;BME280;9582;52.018;6.306;2022-09-24T04:25:31;101041.94;;;14.84;100.00
18900;BME280;9582;52.018;6.306;2022-09-24T04:27:58;101034.81;;;14.41;100.00
18900;BME280;9582;52.018;6.306;2022-09-24T04:30:28;101036.75;;;14.53;100.00
18900;BME280;9582;52.018;6.306;2022-09-24T04:32:55;101036.81;;;14.67;100.00
18900;BME280;9582;52.018;6.306;2022-09-24T04:35:26;101032.06;;;14.58;100.00
18900;BME280;9582;52.018;6.306;2022-09-24T04:37:54;101036.59;;;14.56;100.00
18900;BME280;9582;52.018;6.306;2022-09-24T04:40:21;101038.31;;;14.71;100.00
18900;BME280;9582;52.018;6.306;2022-09-24T04:42:47;101036.81;;;14.67;100.00
18900;BME280;9582;52.018;6.306;2022-09-24T04:45:15;101045.00;;;14.77;100.00
18900;BME280;9582;52.018;6.306;2022-09-24T04:47:45;101038.38;;;14.56;100.00
18900;BME280;9582;52.018;6.306;2022-09-24T04:50:21;101038.53;;;14.53;100.00
18900;BME280;9582;52.018;6.306;2022-09-24T04:52:51;101038.88;;;14.47;100.00
18900;BME280;9582;52.018;6.306;2022-09-24T04:55:18;101047.41;;;14.36;100.00
18900;BME280;9582;52.018;6.306;2022-09-24T04:57:45;101039.81;;;14.30;100.00
18900;BME280;9582;52.018;6.306;2022-09-24T05:00:14;101050.56;;;14.25;100.00
18900;BME280;9582;52.018;6.306;2022-09-24T05:02:42;101044.16;;;14.15;100.00
18900;BME280;9582;52.018;6.306;2022-09-24T05:05:11;101034.88;;;14.39;100.00
18900;BME280;9582;52.018;6.306;2022-09-24T05:07:38;101044.50;;;14.25;100.00
18900;BME280;9582;52.018;6.306;2022-09-24T05:10:05;101043.81;;;14.37;100.00
18900;BME280;9582;52.018;6.306;2022-09-24T05:12:32;101041.97;;;14.39;100.00
18900;BME280;9582;52.018;6.306;2022-09-24T05:14:59;101047.13;;;14.25;100.00
18900;BME280;9582;52.018;6.306;2022-09-24T05:17:26;101043.47;;;14.27;100.00
18900;BME280;9582;52.018;6.306;2022-09-24T05:19:52;101031.16;;;14.28;100.00
18900;BME280;9582;52.018;6.306;2022-09-24T05:22:23;101041.84;;;14.25;100.00
18900;BME280;9582;52.018;6.306;2022-09-24T05:24:51;101036.19;;;14.32;100.00
18900;BME280;9582;52.018;6.306;2022-09-24T05:27:18;101045.69;;;14.35;100.00
18900;BME280;9582;52.018;6.306;2022-09-24T05:29:44;101039.13;;;14.26;100.00
18900;BME280;9582;52.018;6.306;2022-09-24T05:32:12;101046.34;;;14.23;100.00
18900;BME280;9582;52.018;6.306;2022-09-24T05:34:41;101041.34;;;14.18;100.00
18900;BME280;9582;52.018;6.306;2022-09-24T05:37:08;101041.63;;;14.14;100.00
18900;BME280;9582;52.018;6.306;2022-09-24T05:39:37;101044.66;;;14.22;100.00
18900;BME280;9582;52.018;6.306;2022-09-24T05:42:03;101049.94;;;14.22;100.00
18900;BME280;9582;52.018;6.306;2022-09-24T05:44:30;101042.13;;;14.05;100.00
18900;BME280;9582;52.018;6.306;2022-09-24T05:46:57;101050.44;;;14.13;100.00
18900;BME280;9582;52.018;6.306;2022-09-24T05:49:24;101053.97;;;14.12;100.00
18900;BME280;9582;52.018;6.306;2022-09-24T05:51:51;101059.25;;;14.12;100.00
18900;BME280;9582;52.018;6.306;2022-09-24T05:54:18;101051.19;;;14.15;100.00
18900;BME280;9582;52.018;6.306;2022-09-24T05:56:46;101066.38;;;14.10;100.00
18900;BME280;9582;52.018;6.306;2022-09-24T05:59:12;101059.59;;;14.21;100.00
18900;BME280;9582;52.018;6.306;2022-09-24T06:01:39;101063.31;;;14.17;100.00
18900;BME280;9582;52.018;6.306;2022-09-24T06:04:05;101062.28;;;14.20;100.00
18900;BME280;9582;52.018;6.306;2022-09-24T06:06:32;101057.97;;;14.19;100.00
18900;BME280;9582;52.018;6.306;2022-09-24T06:08:59;101055.34;;;14.19;100.00
18900;BME280;9582;52.018;6.306;2022-09-24T06:11:26;101067.91;;;14.29;100.00
18900;BME280;9582;52.018;6.306;2022-09-24T06:14:00;101062.50;;;14.32;100.00
18900;BME280;9582;52.018;6.306;2022-09-24T06:16:28;101060.75;;;14.31;100.00
18900;BME280;9582;52.018;6.306;2022-09-24T06:18:56;101071.03;;;14.20;100.00
18900;BME280;9582;52.018;6.306;2022-09-24T06:21:23;101068.22;;;14.23;100.00
18900;BME280;9582;52.018;6.306;2022-09-24T06:23:49;101063.66;;;14.42;100.00
18900;BME280;9582;52.018;6.306;2022-09-24T06:26:16;101061.31;;;14.38;100.00
18900;BME280;9582;52.018;6.306;2022-09-24T06:28:43;101069.09;;;14.24;100.00
18900;BME280;9582;52.018;6.306;2022-09-24T06:31:10;101063.66;;;14.42;100.00
18900;BME280;9582;52.018;6.306;2022-09-24T06:33:37;101068.50;;;14.50;100.00
18900;BME280;9582;52.018;6.306;2022-09-24T06:36:05;101070.13;;;14.37;100.00
18900;BME280;9582;52.018;6.306;2022-09-24T06:38:31;101068.50;;;14.50;100.00
18900;BME280;9582;52.018;6.306;2022-09-24T06:40:59;101068.50;;;14.34;100.00
18900;BME280;9582;52.018;6.306;2022-09-24T06:43:25;101072.16;;;14.48;100.00
18900;BME280;9582;52.018;6.306;2022-09-24T06:45:54;101070.53;;;14.45;100.00
18900;BME280;9582;52.018;6.306;2022-09-24T06:48:22;101074.19;;;14.58;100.00
18900;BME280;9582;52.018;6.306;2022-09-24T06:50:49;101082.81;;;14.60;100.00
18900;BME280;9582;52.018;6.306;2022-09-24T06:53:16;101077.56;;;14.60;100.00
18900;BME280;9582;52.018;6.306;2022-09-24T06:55:43;101082.75;;;14.62;100.00
18900;BME280;9582;52.018;6.306;2022-09-24T06:58:11;101081.50;;;14.53;100.00
18900;BME280;9582;52.018;6.306;2022-09-24T07:00:38;101078.75;;;14.55;100.00
18900;BME280;9582;52.018;6.306;2022-09-24T07:03:06;101082.00;;;14.44;100.00
18900;BME280;9582;52.018;6.306;2022-09-24T07:05:34;101086.06;;;14.50;100.00
18900;BME280;9582;52.018;6.306;2022-09-24T07:08:00;101085.72;;;14.40;100.00
18900;BME280;9582;52.018;6.306;2022-09-24T07:10:27;101085.84;;;14.68;100.00
18900;BME280;9582;52.018;6.306;2022-09-24T07:12:54;101086.03;;;14.65;100.00
18900;BME280;9582;52.018;6.306;2022-09-24T07:15:20;101079.63;;;14.55;100.00
18900;BME280;9582;52.018;6.306;2022-09-24T07:17:47;101089.31;;;14.39;100.00
18900;BME280;9582;52.018;6.306;2022-09-24T07:20:13;101094.03;;;14.48;100.00
18900;BME280;9582;52.018;6.306;2022-09-24T07:22:41;101092.69;;;14.41;100.00
18900;BME280;9582;52.018;6.306;2022-09-24T07:25:09;101095.22;;;14.42;100.00
18900;BME280;9582;52.018;6.306;2022-09-24T07:27:36;101090.75;;;14.44;100.00
18900;BME280;9582;52.018;6.306;2022-09-24T07:30:04;101102.72;;;14.50;100.00
18900;BME280;9582;52.018;6.306;2022-09-24T07:32:31;101104.94;;;14.42;100.00
18900;BME280;9582;52.018;6.306;2022-09-24T07:34:58;101105.59;;;14.45;100.00
18900;BME280;9582;52.018;6.306;2022-09-24T07:37:25;101110.44;;;14.53;100.00
18900;BME280;9582;52.018;6.306;2022-09-24T07:39:52;101109.59;;;14.53;100.00
18900;BME280;9582;52.018;6.306;2022-09-24T07:42:19;101113.56;;;14.60;100.00
18900;BME280;9582;52.018;6.306;2022-09-24T07:44:46;101115.69;;;14.37;100.00
18900;BME280;9582;52.018;6.306;2022-09-24T07:47:14;101115.63;;;14.39;100.00
18900;BME280;9582;52.018;6.306;2022-09-24T07:49:40;101119.34;;;14.35;100.00
18900;BME280;9582;52.018;6.306;2022-09-24T07:52:07;101128.16;;;14.34;100.00
18900;BME280;9582;52.018;6.306;2022-09-24T07:54:34;101120.09;;;14.21;100.00
18900;BME280;9582;52.018;6.306;2022-09-24T07:57:02;101121.22;;;14.33;100.00
18900;BME280;9582;52.018;6.306;2022-09-24T07:59:36;101125.06;;;14.26;100.00
18900;BME280;9582;52.018;6.306;2022-09-24T08:02:02;101125.75;;;14.29;100.00
18900;BME280;9582;52.018;6.306;2022-09-24T08:04:29;101120.28;;;14.34;100.00
18900;BME280;9582;52.018;6.306;2022-09-24T08:06:56;101125.69;;;14.62;100.00
18900;BME280;9582;52.018;6.306;2022-09-24T08:09:22;101122.91;;;14.34;100.00
18900;BME280;9582;52.018;6.306;2022-09-24T08:11:49;101120.66;;;14.26;100.00
18900;BME280;9582;52.018;6.306;2022-09-24T08:14:17;101125.25;;;14.23;100.00
18900;BME280;9582;52.018;6.306;2022-09-24T08:16:43;101128.50;;;14.59;100.00
18900;BME280;9582;52.018;6.306;2022-09-24T08:19:10;101124.44;;;14.38;100.00
18900;BME280;9582;52.018;6.306;2022-09-24T08:21:38;101131.41;;;14.39;100.00
18900;BME280;9582;52.018;6.306;2022-09-24T08:24:05;101136.06;;;14.34;100.00
18900;BME280;9582;52.018;6.306;2022-09-24T08:26:31;101133.25;;;14.37;100.00
18900;BME280;9582;52.018;6.306;2022-09-24T08:28:58;101133.78;;;14.43;100.00
18900;BME280;9582;52.018;6.306;2022-09-24T08:31:26;101132.44;;;14.36;100.00
18900;BME280;9582;52.018;6.306;2022-09-24T08:33:52;101142.09;;;14.36;100.00
18900;BME280;9582;52.018;6.306;2022-09-24T08:36:19;101148.22;;;14.36;100.00
18900;BME280;9582;52.018;6.306;2022-09-24T08:38:45;101137.50;;;14.39;100.00
18900;BME280;9582;52.018;6.306;2022-09-24T08:41:27;101150.16;;;14.49;100.00
18900;BME280;9582;52.018;6.306;2022-09-24T08:44:01;101139.03;;;14.43;100.00
18900;BME280;9582;52.018;6.306;2022-09-24T08:46:32;101149.97;;;14.52;100.00
18900;BME280;9582;52.018;6.306;2022-09-24T08:49:21;101149.63;;;14.73;100.00
18900;BME280;9582;52.018;6.306;2022-09-24T08:51:58;101148.16;;;14.83;100.00
18900;BME280;9582;52.018;6.306;2022-09-24T08:54:28;101156.81;;;14.85;100.00
18900;BME280;9582;52.018;6.306;2022-09-24T08:56:57;101159.91;;;14.78;100.00
18900;BME280;9582;52.018;6.306;2022-09-24T08:59:28;101158.69;;;14.68;100.00
18900;BME280;9582;52.018;6.306;2022-09-24T09:02:12;101158.63;;;14.69;100.00
18900;BME280;9582;52.018;6.306;2022-09-24T09:04:50;101163.31;;;14.64;100.00
18900;BME280;9582;52.018;6.306;2022-09-24T09:07:24;101159.28;;;15.04;100.00
18900;BME280;9582;52.018;6.306;2022-09-24T09:09:55;101160.22;;;14.87;100.00
18900;BME280;9582;52.018;6.306;2022-09-24T09:12:28;101163.16;;;14.67;100.00
18900;BME280;9582;52.018;6.306;2022-09-24T09:14:59;101167.47;;;14.84;100.00
18900;BME280;9582;52.018;6.306;2022-09-24T09:17:36;101161.41;;;14.82;100.00
18900;BME280;9582;52.018;6.306;2022-09-24T09:20:10;101168.88;;;14.89;100.00
18900;BME280;9582;52.018;6.306;2022-09-24T09:22:44;101168.00;;;15.04;100.00
18900;BME280;9582;52.018;6.306;2022-09-24T09:25:18;101174.47;;;14.99;100.00
18900;BME280;9582;52.018;6.306;2022-09-24T09:27:49;101178.53;;;15.04;100.00
18900;BME280;9582;52.018;6.306;2022-09-24T09:30:17;101180.75;;;14.96;100.00
18900;BME280;9582;52.018;6.306;2022-09-24T09:33:02;101174.00;;;14.92;100.00
18900;BME280;9582;52.018;6.306;2022-09-24T09:35:35;101183.50;;;14.95;100.00
18900;BME280;9582;52.018;6.306;2022-09-24T09:38:12;101180.09;;;14.93;100.00
18900;BME280;9582;52.018;6.306;2022-09-24T09:40:47;101179.91;;;14.96;100.00
18900;BME280;9582;52.018;6.306;2022-09-24T09:43:16;101179.16;;;14.94;100.00
18900;BME280;9582;52.018;6.306;2022-09-24T09:45:48;101181.47;;;14.69;100.00
18900;BME280;9582;52.018;6.306;2022-09-24T09:48:21;101187.75;;;14.66;100.00
18900;BME280;9582;52.018;6.306;2022-09-24T09:50:52;101190.03;;;14.57;100.00
18900;BME280;9582;52.018;6.306;2022-09-24T09:53:22;101187.84;;;14.49;100.00
18900;BME280;9582;52.018;6.306;2022-09-24T09:55:54;101190.19;;;14.54;100.00
18900;BME280;9582;52.018;6.306;2022-09-24T09:58:22;101189.00;;;14.59;100.00
18900;BME280;9582;52.018;6.306;2022-09-24T10:00:51;101191.66;;;14.59;100.00
18900;BME280;9582;52.018;6.306;2022-09-24T10:03:25;101195.41;;;14.55;100.00
18900;BME280;9582;52.018;6.306;2022-09-24T10:05:55;101196.91;;;14.59;100.00
18900;BME280;9582;52.018;6.306;2022-09-24T10:08:23;101197.25;;;14.69;100.00
18900;BME280;9582;52.018;6.306;2022-09-24T10:10:53;101201.25;;;14.91;100.00
18900;BME280;9582;52.018;6.306;2022-09-24T10:13:20;101198.81;;;14.73;100.00
18900;BME280;9582;52.018;6.306;2022-09-24T10:15:48;101197.59;;;14.78;100.00
18900;BME280;9582;52.018;6.306;2022-09-24T10:18:16;101193.94;;;14.81;100.00
18900;BME280;9582;52.018;6.306;2022-09-24T10:20:50;101200.25;;;14.78;100.00
18900;BME280;9582;52.018;6.306;2022-09-24T10:23:19;101201.84;;;14.81;100.00
18900;BME280;9582;52.018;6.306;2022-09-24T10:25:54;101203.72;;;14.63;100.00
18900;BME280;9582;52.018;6.306;2022-09-24T10:28:23;101200.34;;;14.61;100.00
18900;BME280;9582;52.018;6.306;2022-09-24T10:31:11;101202.19;;;14.59;100.00
18900;BME280;9582;52.018;6.306;2022-09-24T10:33:40;101204.72;;;14.45;100.00
18900;BME280;9582;52.018;6.306;2022-09-24T10:36:15;101201.31;;;14.43;100.00
18900;BME280;9582;52.018;6.306;2022-09-24T10:38:42;101202.94;;;14.45;100.00
18900;BME280;9582;52.018;6.306;2022-09-24T10:41:18;101197.00;;;14.58;100.00
18900;BME280;9582;52.018;6.306;2022-09-24T10:43:50;101199.63;;;14.58;100.00
18900;BME280;9582;52.018;6.306;2022-09-24T10:46:31;101196.75;;;14.47;100.00
18900;BME280;9582;52.018;6.306;2022-09-24T10:49:07;101199.44;;;14.45;100.00
18900;BME280;9582;52.018;6.306;2022-09-24T10:51:44;101207.00;;;14.51;100.00
18900;BME280;9582;52.018;6.306;2022-09-24T10:54:28;101202.00;;;14.47;100.00
18900;BME280;9582;52.018;6.306;2022-09-24T10:57:04;101208.97;;;14.63;100.00
18900;BME280;9582;52.018;6.306;2022-09-24T10:59:47;101207.44;;;14.59;100.00
18900;BME280;9582;52.018;6.306;2022-09-24T11:02:26;101202.78;;;14.64;100.00
18900;BME280;9582;52.018;6.306;2022-09-24T11:04:57;101209.75;;;14.81;100.00
18900;BME280;9582;52.018;6.306;2022-09-24T11:07:35;101209.34;;;14.73;100.00
18900;BME280;9582;52.018;6.306;2022-09-24T11:10:13;101206.53;;;14.76;100.00
18900;BME280;9582;52.018;6.306;2022-09-24T11:12:49;101208.03;;;14.80;100.00
18900;BME280;9582;52.018;6.306;2022-09-24T11:15:29;101207.63;;;14.72;100.00
18900;BME280;9582;52.018;6.306;2022-09-24T11:18:11;101207.63;;;14.72;100.00
18900;BME280;9582;52.018;6.306;2022-09-24T11:20:43;101205.25;;;14.67;100.00
18900;BME280;9582;52.018;6.306;2022-09-24T11:23:28;101203.56;;;14.66;100.00
18900;BME280;9582;52.018;6.306;2022-09-24T11:26:01;101202.69;;;14.97;100.00
18900;BME280;9582;52.018;6.306;2022-09-24T11:28:43;101210.16;;;14.73;100.00
18900;BME280;9582;52.018;6.306;2022-09-24T11:31:22;101200.25;;;14.78;100.00
18900;BME280;9582;52.018;6.306;2022-09-24T11:34:14;101204.56;;;14.79;100.00
18900;BME280;9582;52.018;6.306;2022-09-24T11:37:05;101197.59;;;14.78;100.00
18900;BME280;9582;52.018;6.306;2022-09-24T11:39:44;101199.63;;;14.89;100.00
18900;BME280;9582;52.018;6.306;2022-09-24T11:42:21;101204.72;;;14.92;100.00
18900;BME280;9582;52.018;6.306;2022-09-24T11:45:02;101197.50;;;14.80;100.00
18900;BME280;9582;52.018;6.306;2022-09-24T11:47:51;101198.09;;;14.85;100.00
18900;BME280;9582;52.018;6.306;2022-09-24T11:50:30;101197.50;;;14.95;100.00
18900;BME280;9582;52.018;6.306;2022-09-24T11:53:05;101194.53;;;14.86;100.00
18900;BME280;9582;52.018;6.306;2022-09-24T11:55:38;101193.16;;;14.94;100.00
18900;BME280;9582;52.018;6.306;2022-09-24T11:58:14;101189.94;;;14.89;100.00
18900;BME280;9582;52.018;6.306;2022-09-24T12:00:47;101190.13;;;14.86;100.00
18900;BME280;9582;52.018;6.306;2022-09-24T12:03:17;101194.19;;;14.92;100.00
18900;BME280;9582;52.018;6.306;2022-09-24T12:05:50;101189.00;;;15.06;100.00
18900;BME280;9582;52.018;6.306;2022-09-24T12:08:24;101190.19;;;15.00;100.00
18900;BME280;9582;52.018;6.306;2022-09-24T12:10:59;101191.63;;;15.06;100.00
18900;BME280;9582;52.018;6.306;2022-09-24T12:13:32;101191.13;;;14.99;100.00
18900;BME280;9582;52.018;6.306;2022-09-24T12:16:02;101194.72;;;14.98;100.00
18900;BME280;9582;52.018;6.306;2022-09-24T12:18:34;101196.03;;;15.06;100.00
18900;BME280;9582;52.018;6.306;2022-09-24T12:21:07;101188.53;;;15.29;100.00
18900;BME280;9582;52.018;6.306;2022-09-24T12:23:38;101194.44;;;15.33;100.00
18900;BME280;9582;52.018;6.306;2022-09-24T12:26:09;101186.13;;;15.25;100.00
18900;BME280;9582;52.018;6.306;2022-09-24T12:28:42;101192.94;;;15.29;100.00
18900;BME280;9582;52.018;6.306;2022-09-24T12:31:31;101196.59;;;15.26;100.00
18900;BME280;9582;52.018;6.306;2022-09-24T12:34:25;101193.78;;;15.29;100.00
18900;BME280;9582;52.018;6.306;2022-09-24T12:36:58;101193.69;;;15.46;100.00
18900;BME280;9582;52.018;6.306;2022-09-24T12:39:30;101195.03;;;15.38;100.00
18900;BME280;9582;52.018;6.306;2022-09-24T12:42:02;101192.47;;;15.36;100.00
18900;BME280;9582;52.018;6.306;2022-09-24T12:44:38;101207.03;;;15.28;100.00
18900;BME280;9582;52.018;6.306;2022-09-24T12:47:15;101200.88;;;15.43;100.00
18900;BME280;9582;52.018;6.306;2022-09-24T12:49:47;101195.78;;;15.40;100.00
18900;BME280;9582;52.018;6.306;2022-09-24T12:52:17;101194.81;;;15.27;100.00
18900;BME280;9582;52.018;6.306;2022-09-24T12:54:44;101196.31;;;15.31;100.00
18900;BME280;9582;52.018;6.306;2022-09-24T12:57:15;101196.59;;;15.26;100.00
18900;BME280;9582;52.018;6.306;2022-09-24T12:59:47;101198.28;;;15.27;100.00
18900;BME280;9582;52.018;6.306;2022-09-24T13:02:16;101195.03;;;15.38;100.00
18900;BME280;9582;52.018;6.306;2022-09-24T13:04:49;101189.31;;;15.45;100.00
18900;BME280;9582;52.018;6.306;2022-09-24T13:07:31;101184.94;;;15.60;100.00